createdAt,value
2023-05-22T05:00:26.374Z,19.88
2023-05-22T05:03:13.332Z,19.70
2023-05-22T05:06:01.422Z,20.62
2023-05-22T05:08:49.728Z,20.99
2023-05-22T05:11:36.055Z,21.48
2023-05-22T05:14:23.476Z,21.34
2023-05-22T05:36:39.445Z,21.41
2023-05-22T05:39:26.551Z,21.46
2023-05-22T05:42:12.944Z,21.52
2023-05-22T05:44:59.777Z,22.43
2023-05-22T05:47:47.978Z,22.68
2023-05-22T05:50:35.229Z,21.87
2023-05-22T05:53:23.515Z,22.15
2023-05-22T05:56:16.025Z,20.02
2023-05-22T05:59:02.626Z,20.70
2023-05-22T06:02:01.759Z,22.65
2023-05-22T06:04:51.622Z,20.23
2023-05-22T06:07:39.741Z,20.33
2023-05-22T06:10:28.916Z,21.06
2023-05-22T06:13:30.036Z,20.87
2023-05-22T06:16:16.626Z,21.18
2023-05-22T06:19:04.567Z,22.84
2023-05-22T06:21:52.238Z,24.45
2023-05-22T06:24:40.517Z,25.14
2023-05-22T06:27:33.926Z,24.63
2023-05-22T06:30:31.988Z,22.49
2023-05-22T06:33:27.819Z,22.61
2023-05-22T06:36:14.011Z,22.86
2023-05-22T06:39:00.048Z,22.90
2023-05-22T06:42:06.719Z,23.24
2023-05-22T06:45:14.731Z,23.59
2023-05-22T06:48:11.498Z,23.98
2023-05-22T06:51:06.936Z,25.45
2023-05-22T06:53:53.417Z,25.09
2023-05-22T06:56:44.074Z,25.31
2023-05-22T06:59:35.406Z,24.44
2023-05-22T07:02:26.279Z,24.61
2023-05-22T07:05:35.380Z,24.52
2023-05-22T07:08:22.570Z,25.34
2023-05-22T07:11:09.419Z,25.38
2023-05-22T07:13:56.075Z,25.22
2023-05-22T07:16:42.691Z,25.69
2023-05-22T07:19:30.944Z,26.15
2023-05-22T07:22:24.138Z,26.35
2023-05-22T07:25:10.814Z,27.91
2023-05-22T07:27:58.308Z,28.29
2023-05-22T07:30:45.693Z,28.14
2023-05-22T07:33:32.503Z,28.80
2023-05-22T07:36:21.112Z,28.57
2023-05-22T07:39:09.555Z,28.46
2023-05-22T07:41:59.503Z,26.46
2023-05-22T07:44:48.392Z,27.96
2023-05-22T07:47:36.880Z,28.03
2023-05-22T07:50:26.595Z,28.13
2023-05-22T07:53:14.940Z,27.85
2023-05-22T07:56:03.053Z,26.13
2023-05-22T07:58:50.949Z,26.01
2023-05-22T08:01:41.829Z,26.65
2023-05-22T08:04:30.052Z,26.43
2023-05-22T08:07:16.891Z,27.72
2023-05-22T08:10:09.014Z,28.90
2023-05-22T08:12:55.406Z,28.61
2023-05-22T08:15:41.655Z,29.71
2023-05-22T08:18:29.103Z,29.57
2023-05-22T08:21:16.177Z,28.83
2023-05-22T08:24:02.880Z,29.43
2023-05-22T08:26:50.525Z,29.90
2023-05-22T08:29:36.938Z,30.06
2023-05-22T08:32:23.812Z,30.83
2023-05-22T08:35:11.814Z,30.59
2023-05-22T08:37:57.981Z,30.96
2023-05-22T08:40:49.089Z,31.51
2023-05-22T08:43:36.682Z,30.43
2023-05-22T08:46:28.304Z,31.60
2023-05-22T08:49:14.941Z,33.29
2023-05-22T08:52:06.671Z,26.50
2023-05-22T08:54:56.416Z,25.84
2023-05-22T08:57:45.880Z,26.59
2023-05-22T09:00:34.311Z,28.43
2023-05-22T09:03:21.649Z,27.22
2023-05-22T09:06:10.256Z,26.73
2023-05-22T09:08:56.662Z,27.62
2023-05-22T09:11:43.403Z,27.65
2023-05-22T09:14:39.215Z,27.22
2023-05-22T09:17:27.533Z,27.34
2023-05-22T09:20:15.692Z,27.08
2023-05-22T09:23:03.798Z,26.70
2023-05-22T09:25:50.138Z,26.65
2023-05-22T09:28:38.159Z,27.62
2023-05-22T09:31:24.521Z,27.15
2023-05-22T09:34:14.746Z,28.06
2023-05-22T09:37:04.273Z,28.12
2023-05-22T09:39:54.437Z,27.71
2023-05-22T09:42:44.178Z,28.78
2023-05-22T09:45:30.741Z,27.90
2023-05-22T09:48:18.544Z,27.32
2023-05-22T09:51:08.476Z,28.77
2023-05-22T09:54:03.750Z,30.90
2023-05-22T09:56:51.141Z,30.55
2023-05-22T09:59:40.193Z,28.19
2023-05-22T10:02:29.231Z,27.94
2023-05-22T10:05:21.638Z,27.58
2023-05-22T10:08:11.911Z,27.66
2023-05-22T10:10:58.997Z,29.40
2023-05-22T10:13:47.424Z,30.67
2023-05-22T13:35:46.067Z,32.59
2023-05-22T13:38:35.466Z,30.50
2023-05-22T13:41:22.273Z,32.00
2023-05-22T13:44:09.598Z,32.14
2023-05-22T13:46:56.286Z,31.89
2023-05-22T13:49:45.008Z,31.95
2023-05-22T13:52:32.847Z,31.35
2023-05-22T13:55:21.388Z,32.40
2023-05-22T13:58:08.219Z,32.49
2023-05-22T14:00:57.571Z,33.12
2023-05-22T14:04:12.456Z,32.87
2023-05-22T14:06:59.354Z,33.19
2023-05-22T14:09:49.878Z,30.63
2023-05-22T14:12:36.246Z,29.68
2023-05-22T14:15:24.200Z,28.57
2023-05-22T14:18:16.854Z,28.43
2023-05-22T14:21:04.737Z,28.22
2023-05-22T14:23:51.630Z,28.20
2023-05-22T14:26:40.382Z,28.25
2023-05-22T14:29:27.401Z,29.26
2023-05-22T14:32:13.484Z,29.09
2023-05-22T14:34:59.817Z,28.99
2023-05-22T14:37:46.883Z,28.70
2023-05-22T14:40:33.317Z,28.77
2023-05-22T14:43:21.948Z,29.10
2023-05-22T14:46:08.798Z,28.35
2023-05-22T14:48:55.368Z,28.92
2023-05-22T14:51:41.954Z,28.80
2023-05-22T14:54:32.391Z,29.96
2023-05-22T14:57:18.759Z,29.84
2023-05-22T16:02:28.881Z,27.83
2023-05-22T16:05:15.709Z,28.96
2023-05-22T16:08:02.447Z,28.89
2023-05-22T16:10:48.709Z,28.24
2023-05-22T16:13:35.276Z,27.77
2023-05-22T17:07:00.031Z,26.00
2023-05-22T17:10:13.924Z,25.16
2023-05-22T17:13:02.809Z,24.54
2023-05-22T17:15:49.817Z,24.52
2023-05-22T17:18:36.708Z,24.74
2023-05-22T17:21:24.175Z,23.99
2023-05-22T17:24:14.692Z,23.89
2023-05-22T17:27:03.423Z,23.86
2023-05-22T17:30:16.242Z,23.60
2023-05-22T17:33:03.689Z,23.73
2023-05-22T17:35:50.902Z,23.43
2023-05-22T17:38:39.252Z,23.87
2023-05-22T17:41:27.436Z,23.37
2023-05-22T17:44:14.228Z,23.23
2023-05-22T17:47:00.989Z,23.07
2023-05-22T17:49:47.299Z,23.48
2023-05-22T17:52:33.602Z,23.78
2023-05-22T17:55:20.878Z,23.84
2023-05-22T17:58:08.924Z,23.22
2023-05-22T18:00:55.349Z,23.47
2023-05-22T18:03:42.216Z,23.22
2023-05-22T18:06:29.147Z,22.83
2023-05-22T18:09:15.718Z,23.48
2023-05-22T18:12:03.578Z,22.74
2023-05-22T18:14:52.236Z,22.48
2023-05-22T18:17:38.889Z,22.62
2023-05-22T18:20:25.119Z,22.83
2023-05-22T18:23:11.524Z,23.09
2023-05-22T18:25:58.231Z,23.40
2023-05-22T18:28:44.783Z,23.66
2023-05-22T18:31:33.286Z,23.54
2023-05-22T18:34:19.857Z,22.90
2023-05-22T18:37:06.609Z,23.12
2023-05-22T18:39:52.978Z,22.79
2023-05-22T18:42:39.676Z,23.40
2023-05-22T18:45:26.422Z,23.28
2023-05-22T18:48:14.236Z,22.70
2023-05-22T18:51:01.236Z,22.65
2023-05-22T18:53:47.519Z,22.85
2023-05-22T18:56:34.086Z,22.77
2023-05-22T18:59:20.783Z,22.39
2023-05-22T19:48:43.980Z,21.34
2023-05-22T19:52:53.696Z,21.41
2023-05-22T22:02:58.884Z,17.52
2023-05-22T22:05:45.115Z,17.15
2023-05-22T22:08:31.973Z,17.34
2023-05-22T22:11:18.206Z,17.22
2023-05-22T22:14:04.872Z,17.67
